Aérodrome de Pamiers - Les Pujols

LFDJ · Ariège, Occitanie, 法国

罗盘
风向 的 风向 280° Pamiers-Les Pujols Airport 9/27
风: 14 kt, 4 beaufort

14 kt

2 kt
改变
0 ft 1.000 2.000 3.000 4.000 5.000
Cloud Cloud Cloud Cloud Cloud Cloud
BKN 2.700
Cloud Cloud Cloud Cloud Cloud Cloud Cloud Cloud
OVC 3.300
METAR LFMK 262130Z AUTO 28014KT 9999 BKN027 OVC033 02/M00 Q1019

METAR Pamiers-Les Pujols Airport - LFDJ

Pamiers-Les Pujols Airport是,法国中的小机场。 该机场有一条跑道: 9/27. 该领域的国际民航组织标志是LFDJ.

这份报告是针对2023年1月26日 22:30, 当地时间在Carcassonne Airport进行的。

机场观察

风向为280°,速度为14 kt。

可见度为10 km 或者更多。

有碎云在2.700 ft的高度 和 乌云密布在3.300 ft的高度。 破损或更高的上限为2.700 ft。

温度为2 °C,阵风为-5 °C。 海平面上的气压为1019 hPa (QNH)。

白天

今天,太阳从08:14升起,在17:56降落。 这适用于Pamiers-Les Pujols Airport,世界夏令时可能有所不同。 当地时间与世界标准时间之间的时差为+1 小时。 当前,没有夏令时有效。

公司介绍

在这个机场,你可以找到飞行俱乐部 和 跳伞中心。 这个机场上的公司有Aéroclub de Pamiers les Pujols 和 C.E.P.S of Ariège。

体会

到Vliegles.nl去找飞行课程,跳伞和其他飞行体验。 浏览页面,了解Pamiers-Les Pujols Airport附近所有可用的活动。 你也可以使用搜索功能来寻找你所在地附近的特定飞行课程、跳伞或其他飞行体验。

跑道

Id 标题 侧风 逆风 侧风 %
9/27 092°-272° 2 kt 14 kt 14 %

逆风成分最大的方向会被突出显示,并用于横风计算。 这并不一定意味着这个方向在使用。

乌云

2.700 ft BKN 碎云
3.300 ft OVC 乌云密布

温度 & 天气

温度 2 °C
露点 0 °C
相对湿度 87%
风寒 -5 °C
Kp-index 0 (0-9)

白天

日出
08:12 (9:09)
中午
13:03
日落
17:54

小工具

你想在你的网站上有一个关于Pamiers-Les Pujols Airport的当前航空天气(METAR)的小部件吗?

显示HTML代码

我们和第三方通过cookies跟踪您在我们网站上的互联网行为。如果你继续,我们认为你同意我们的饼干政策